Quincy, Indiana
Current Conditions -  °F | °C
As of 7:15 PM on Thursday 27 Nov 2014 (Local Time) from K4I7 Reporting Station
Light Snow Light Snow  
Wind Chill: 21°   Ceiling: 2100
Heat Index: 27°   Visibility: 4mi
Dew Point: 23°   Wind: 5mph
Humidity: 86%   Direction: 260°W
Pressure: 30.41"   Gusts: NA
Location:  39.45°N, 86.71°W
Report Text: K4I7 280015Z AUTO 26004KT 4SM -SN SCT012 BKN021 OVC048 M03/M05 A3041 RMK AO2
Loading
Personal Weather Stations






























Interactive Weather Map New forecast layout! Learn more

10-Day Weather Forecast

Advertisements
Track Severe Weather on mobile